Time;durP1;ratioP1;P1;durP2;ratioP2;P2;SDS_P1;SDS_P2;PMS_P1;PMS_P2;Temp;Humidity;BMP_temperature;BMP_pressure;BME280_temperature;BME280_humidity;BME280_pressure;Samples;Min_cycle;Max_cycle;Signal;HPM_P1;HPM_P2
2022/03/11 00:02:15;;;;;;;13.70;6.90;;;;;;;-0.03;71.49;102182.53;5046093;28;20028;-67
2022/03/11 00:04:40;;;;;;;7.55;4.30;;;;;;;0.11;70.92;102185.97;5046092;28;20025;-68
2022/03/11 00:07:06;;;;;;;12.00;5.95;;;;;;;-0.09;71.60;102171.91;5045691;28;20030;-68
2022/03/11 00:09:31;;;;;;;8.88;4.45;;;;;;;-0.10;71.83;102165.06;5045929;28;20547;-69
2022/03/11 00:11:57;;;;;;;8.77;4.15;;;;;;;-0.01;70.78;102176.75;5045624;28;20075;-68
2022/03/11 00:14:22;;;;;;;12.23;6.28;;;;;;;-0.02;70.62;102166.44;5045729;28;20040;-68
2022/03/11 00:16:47;;;;;;;9.95;5.95;;;;;;;-0.12;70.98;102177.72;5045790;28;20021;-67
2022/03/11 00:19:13;;;;;;;9.10;5.95;;;;;;;-0.19;71.10;102168.78;5045563;28;20111;-68
2022/03/11 00:21:38;;;;;;;12.30;5.68;;;;;;;-0.07;70.55;102175.47;5045455;28;20017;-68
2022/03/11 00:24:04;;;;;;;10.25;4.65;;;;;;;0.09;69.96;102172.22;5045974;28;20025;-68
2022/03/11 00:26:31;;;;;;;6.93;4.05;;;;;;;-0.08;69.98;102169.47;5045384;28;20021;-68
2022/03/11 00:28:56;;;;;;;12.88;5.22;;;;;;;-0.11;70.48;102173.50;5045373;28;20043;-68
2022/03/11 00:31:22;;;;;;;8.88;4.07;;;;;;;-0.12;69.96;102167.50;5045314;28;20120;-68
2022/03/11 00:33:47;;;;;;;8.45;4.85;;;;;;;-0.19;70.36;102171.34;5045077;28;20040;-68
2022/03/11 00:36:12;;;;;;;29.65;5.13;;;;;;;-0.11;70.19;102166.72;5045204;28;20068;-68
2022/03/11 00:38:37;;;;;;;8.77;4.68;;;;;;;-0.06;69.84;102159.34;5045446;28;20103;-68
2022/03/11 00:41:03;;;;;;;9.07;5.38;;;;;;;-0.26;70.34;102159.84;5045327;28;20024;-69
2022/03/11 00:43:28;;;;;;;11.88;6.00;;;;;;;-0.28;70.29;102163.97;5044873;28;20021;-67
2022/03/11 00:45:54;;;;;;;13.63;6.32;;;;;;;-0.23;70.05;102171.94;5027409;28;20029;-68
2022/03/11 00:48:20;;;;;;;11.60;5.10;;;;;;;-0.31;70.19;102160.34;5045269;28;20022;-67
2022/03/11 00:50:47;;;;;;;11.82;6.43;;;;;;;-0.30;70.15;102164.66;5045295;28;20021;-67
2022/03/11 00:53:13;;;;;;;7.65;4.55;;;;;;;-0.20;69.70;102168.69;5045326;28;20033;-68
2022/03/11 00:55:38;;;;;;;7.32;4.88;;;;;;;-0.20;69.29;102143.16;5044584;28;20052;-68
2022/03/11 00:58:05;;;;;;;6.18;4.00;;;;;;;-0.31;69.72;102158.69;5044895;28;20146;-67
2022/03/11 01:00:30;;;;;;;7.88;5.05;;;;;;;-0.34;69.66;102163.59;5045057;28;20028;-69
2022/03/11 01:02:56;;;;;;;11.30;6.47;;;;;;;-0.35;69.69;102156.69;5045273;28;20029;-67
2022/03/11 01:05:24;;;;;;;9.05;5.00;;;;;;;-0.26;69.33;102161.53;5044903;28;20103;-67
2022/03/11 01:07:50;;;;;;;10.82;6.22;;;;;;;-0.24;69.11;102157.41;5044987;28;20031;-67
2022/03/11 01:10:15;;;;;;;13.05;4.78;;;;;;;-0.04;68.27;102162.91;5044646;28;20026;-68
2022/03/11 01:12:42;;;;;;;11.20;6.38;;;;;;;-0.32;68.94;102168.78;5044355;28;20025;-67
2022/03/11 01:15:08;;;;;;;8.90;4.40;;;;;;;-0.35;69.05;102168.59;5045061;28;20029;-67
2022/03/11 01:17:33;;;;;;;8.88;5.63;;;;;;;-0.39;69.15;102176.06;5044542;28;20508;-67
2022/03/11 01:19:59;;;;;;;7.15;3.63;;;;;;;-0.37;69.31;102181.25;5044881;28;20029;-67
2022/03/11 01:22:24;;;;;;;6.93;4.07;;;;;;;-0.54;69.75;102183.56;5044956;28;20082;-67
2022/03/11 01:24:50;;;;;;;11.07;5.40;;;;;;;-0.36;69.03;102188.13;5044857;28;20026;-67
2022/03/11 01:27:15;;;;;;;14.35;4.80;;;;;;;-0.53;69.71;102180.22;5044426;28;20030;-67
2022/03/11 01:29:40;;;;;;;9.77;4.93;;;;;;;-0.54;69.81;102182.69;5027271;28;20040;-67
2022/03/11 01:32:06;;;;;;;12.02;7.05;;;;;;;-0.48;69.16;102155.03;5044619;28;20389;-67
2022/03/11 01:34:31;;;;;;;6.32;3.70;;;;;;;-0.46;69.57;102152.59;5044731;28;20040;-68
2022/03/11 01:36:57;;;;;;;9.05;3.75;;;;;;;-0.34;68.91;102166.13;5044509;28;20053;-70
2022/03/11 01:39:22;;;;;;;9.38;4.72;;;;;;;-0.34;68.62;102163.59;5044724;28;20032;-68
2022/03/11 01:41:48;;;;;;;12.20;5.43;;;;;;;-0.43;68.75;102156.19;5044120;28;20052;-67
2022/03/11 01:44:13;;;;;;;9.77;5.60;;;;;;;-0.24;67.98;102159.06;5044993;28;20022;-68
2022/03/11 01:46:38;;;;;;;8.50;4.60;;;;;;;-0.24;67.74;102148.88;5044369;28;20494;-68
2022/03/11 01:49:07;;;;;;;7.32;4.03;;;;;;;-0.45;68.42;102150.13;5044553;28;20048;-68
2022/03/11 01:51:33;;;;;;;7.05;4.57;;;;;;;-0.45;68.63;102151.78;5044582;28;20025;-69
2022/03/11 01:53:59;;;;;;;7.38;3.83;;;;;;;-0.52;68.26;102156.50;5044705;28;20311;-67
2022/03/11 01:56:25;;;;;;;8.32;4.82;;;;;;;-0.24;67.45;102156.53;5029913;28;20025;-68
2022/03/11 01:58:53;;;;;;;6.93;4.40;;;;;;;-0.14;66.93;102147.00;5048336;28;20143;-69
2022/03/11 02:01:19;;;;;;;15.18;7.18;;;;;;;-0.35;67.55;102155.84;5048209;28;20025;-68
2022/03/11 02:03:45;;;;;;;5.88;3.95;;;;;;;-0.13;66.70;102153.84;5048342;28;20461;-68
2022/03/11 02:06:13;;;;;;;14.73;5.40;;;;;;;-0.43;67.50;102142.56;5048172;28;20100;-67
2022/03/11 02:08:39;;;;;;;6.35;3.95;;;;;;;-0.39;67.67;102158.19;5048049;28;20081;-68
2022/03/11 02:11:05;;;;;;;7.13;3.15;;;;;;;-0.48;67.59;102141.38;5029958;28;20021;-68
2022/03/11 02:13:52;;;;;;;7.65;4.05;;;;;;;-0.39;67.85;102147.97;5048128;28;20089;-68
2022/03/11 02:16:29;;;;;;;8.73;4.50;;;;;;;-0.60;68.25;102147.44;5047788;28;20489;-68
2022/03/11 02:18:56;;;;;;;10.63;4.32;;;;;;;-0.47;67.68;102143.16;5047839;28;20063;-68
2022/03/11 02:21:23;;;;;;;14.27;4.55;;;;;;;-0.51;67.99;102145.50;5047978;28;20382;-69
2022/03/11 02:23:50;;;;;;;10.50;4.32;;;;;;;-0.54;67.90;102140.19;5047890;28;20120;-67
2022/03/11 02:26:18;;;;;;;12.70;6.05;;;;;;;-0.71;68.49;102144.19;5047327;28;20017;-69
2022/03/11 02:28:44;;;;;;;10.05;5.47;;;;;;;-0.64;68.26;102145.50;5047629;28;20044;-67
2022/03/11 02:31:10;;;;;;;11.02;5.78;;;;;;;-0.65;68.04;102146.25;5047485;28;20021;-68
2022/03/11 02:33:36;;;;;;;11.13;4.90;;;;;;;-0.46;67.29;102127.94;5047669;28;20036;-68
2022/03/11 02:36:01;;;;;;;4.63;2.83;;;;;;;-0.33;66.86;102132.16;5047315;28;20035;-69
2022/03/11 02:38:27;;;;;;;10.85;5.72;;;;;;;-0.66;67.64;102126.63;5047656;28;20404;-67
2022/03/11 02:40:53;;;;;;;9.55;4.70;;;;;;;-0.45;67.16;102126.28;5047506;28;20064;-68
2022/03/11 02:43:18;;;;;;;4.68;3.17;;;;;;;-0.42;66.94;102132.47;5047539;28;20029;-68
2022/03/11 02:45:44;;;;;;;8.65;4.28;;;;;;;-0.65;67.57;102113.09;5047420;28;20385;-69
2022/03/11 02:48:09;;;;;;;4.90;3.85;;;;;;;-0.63;67.66;102127.72;5047553;28;20028;-68
2022/03/11 02:50:35;;;;;;;7.53;4.60;;;;;;;-0.48;67.23;102120.97;5028844;28;20045;-69
2022/03/11 02:53:00;;;;;;;6.88;3.88;;;;;;;-0.50;67.39;102134.50;5046911;28;20056;-69
2022/03/11 02:55:25;;;;;;;9.10;4.82;;;;;;;-0.65;67.53;102141.16;5046972;28;20032;-68
2022/03/11 02:57:51;;;;;;;10.20;4.30;;;;;;;-0.48;67.12;102115.88;5046837;28;20393;-69
2022/03/11 03:00:16;;;;;;;9.60;4.03;;;;;;;-0.45;66.77;102113.50;5047305;28;20020;-68
2022/03/11 03:02:42;;;;;;;7.65;3.90;;;;;;;-0.63;67.07;102106.44;5047276;28;20032;-69
2022/03/11 03:05:08;;;;;;;6.95;4.38;;;;;;;-0.69;67.66;102112.03;5028946;28;20060;-69
2022/03/11 03:07:33;;;;;;;8.80;3.17;;;;;;;-0.59;67.36;102117.72;5046942;28;20052;-68
2022/03/11 03:09:59;;;;;;;12.77;4.93;;;;;;;-0.42;67.00;102122.25;5046866;28;20022;-69
2022/03/11 03:12:25;;;;;;;9.77;4.75;;;;;;;-0.80;67.67;102112.97;5046688;28;20029;-69
2022/03/11 03:14:51;;;;;;;10.57;5.53;;;;;;;-0.69;67.71;102127.34;5028941;28;20112;-67
2022/03/11 03:17:18;;;;;;;9.75;4.22;;;;;;;-0.61;67.38;102107.44;5046420;28;20072;-69
2022/03/11 03:19:44;;;;;;;6.25;3.35;;;;;;;-0.48;67.24;102119.31;5046567;28;20029;-69
2022/03/11 03:22:09;;;;;;;10.43;4.53;;;;;;;-0.66;67.66;102118.97;5047454;28;20025;-68
2022/03/11 03:24:35;;;;;;;10.88;4.93;;;;;;;-0.71;67.44;102100.84;5046753;28;20021;-68
2022/03/11 03:27:00;;;;;;;5.72;3.67;;;;;;;-0.52;67.06;102104.56;5046394;28;20028;-68
2022/03/11 03:29:26;;;;;;;8.57;4.50;;;;;;;-0.53;67.01;102118.97;5046562;28;20466;-67
2022/03/11 03:31:57;;;;;;;9.63;4.75;;;;;;;-0.55;67.30;102115.47;5046725;28;20021;-68
2022/03/11 03:34:23;;;;;;;7.13;4.78;;;;;;;-0.69;67.54;102111.13;5028338;28;20021;-68
2022/03/11 03:36:48;;;;;;;9.73;4.22;;;;;;;-0.73;67.61;102110.03;5046008;28;20092;-68
2022/03/11 03:39:14;;;;;;;8.45;3.33;;;;;;;-0.52;67.31;102112.22;5046433;28;20017;-69
2022/03/11 03:41:39;;;;;;;11.75;6.00;;;;;;;-0.61;67.29;102104.88;5045621;28;20041;-67
2022/03/11 03:44:04;;;;;;;5.75;3.85;;;;;;;-0.73;67.72;102098.94;5046316;28;20021;-67
2022/03/11 03:46:30;;;;;;;7.13;4.10;;;;;;;-0.66;67.35;102099.47;5045986;28;20032;-66
2022/03/11 03:48:55;;;;;;;9.57;4.65;;;;;;;-0.57;67.08;102100.81;5045902;28;20025;-67
2022/03/11 03:51:20;;;;;;;3.90;2.78;;;;;;;-0.50;67.01;102100.47;5046046;28;20036;-67
2022/03/11 03:53:46;;;;;;;7.28;4.40;;;;;;;-0.48;66.74;102095.44;5045994;28;20380;-67
2022/03/11 03:56:11;;;;;;;7.85;4.32;;;;;;;-0.67;67.60;102087.47;5045721;28;20105;-67
2022/03/11 03:58:36;;;;;;;7.95;4.28;;;;;;;-0.50;66.91;102070.69;5046003;28;20017;-68
2022/03/11 04:01:02;;;;;;;10.70;5.70;;;;;;;-0.73;67.52;102089.63;5045707;28;20045;-67
2022/03/11 04:03:27;;;;;;;6.95;4.15;;;;;;;-0.70;67.36;102083.88;5045806;28;20100;-68
2022/03/11 04:05:52;;;;;;;6.07;3.75;;;;;;;-0.45;66.76;102082.88;5045589;28;20376;-70
2022/03/11 04:08:18;;;;;;;13.88;4.63;;;;;;;-0.66;67.51;102088.38;5045886;28;20499;-68
2022/03/11 04:10:43;;;;;;;7.63;4.30;;;;;;;-0.71;67.81;102085.53;5045891;28;20036;-68
2022/03/11 04:13:08;;;;;;;10.63;5.60;;;;;;;-0.78;67.94;102089.34;5045543;28;20029;-68
2022/03/11 04:15:34;;;;;;;13.80;6.50;;;;;;;-0.93;68.56;102083.22;5045739;28;20025;-67
2022/03/11 04:17:59;;;;;;;12.60;7.20;;;;;;;-0.91;68.57;102076.56;5044887;28;20029;-68
2022/03/11 04:20:24;;;;;;;14.23;5.57;;;;;;;-0.97;68.56;102060.84;5045565;28;20025;-68
2022/03/11 04:22:50;;;;;;;12.75;6.60;;;;;;;-0.82;68.24;102076.28;5045901;28;20025;-68
2022/03/11 04:25:15;;;;;;;8.00;5.90;;;;;;;-0.96;68.89;102083.94;5045694;28;20481;-68
2022/03/11 04:27:41;;;;;;;11.98;3.55;;;;;;;-0.88;68.51;102058.94;5045151;28;20028;-68
2022/03/11 04:30:07;;;;;;;5.35;3.05;;;;;;;-0.79;68.27;102079.03;5045114;28;20025;-69
2022/03/11 04:32:33;;;;;;;10.63;5.88;;;;;;;-0.94;68.90;102077.25;5045553;28;20025;-68
2022/03/11 04:34:58;;;;;;;6.47;4.05;;;;;;;-0.83;68.75;102077.94;5045384;28;20026;-68
2022/03/11 04:37:24;;;;;;;15.85;5.20;;;;;;;-0.94;68.72;102068.72;5044943;28;20045;-69
2022/03/11 04:39:49;;;;;;;10.82;4.95;;;;;;;-0.92;69.25;102075.69;5045389;28;20025;-69
2022/03/11 04:42:14;;;;;;;9.85;4.43;;;;;;;-0.85;68.94;102071.00;5045082;28;20021;-68
2022/03/11 04:44:40;;;;;;;13.40;5.28;;;;;;;-0.80;68.69;102075.59;5045317;28;20085;-68
2022/03/11 04:47:05;;;;;;;8.07;4.65;;;;;;;-0.77;68.33;102070.69;5045108;28;20022;-68
2022/03/11 04:49:31;;;;;;;10.70;5.80;;;;;;;-0.94;69.24;102063.63;5044884;28;20026;-68
2022/03/11 04:51:56;;;;;;;19.35;7.30;;;;;;;-0.97;69.34;102068.50;5044931;28;20063;-67
2022/03/11 04:54:21;;;;;;;11.70;5.13;;;;;;;-0.76;68.64;102062.28;5045003;28;20389;-69
2022/03/11 04:56:47;;;;;;;10.73;5.97;;;;;;;-0.76;68.73;102079.22;5026919;28;20033;-68
2022/03/11 04:59:13;;;;;;;7.47;4.03;;;;;;;-0.62;68.34;102075.03;5045116;28;20033;-68
2022/03/11 05:01:39;;;;;;;12.38;5.78;;;;;;;-0.83;68.76;102082.19;5045291;28;20022;-67
2022/03/11 05:04:04;;;;;;;12.77;5.78;;;;;;;-0.79;68.89;102069.72;5045225;28;20048;-69
2022/03/11 05:06:29;;;;;;;10.90;5.00;;;;;;;-0.83;69.03;102083.03;5044942;28;20017;-68
2022/03/11 05:08:55;;;;;;;16.45;6.95;;;;;;;-0.82;68.83;102089.03;5044838;28;20036;-68
2022/03/11 05:11:20;;;;;;;8.90;3.70;;;;;;;-0.83;69.11;102080.50;5026678;28;20037;-67
2022/03/11 05:13:46;;;;;;;10.35;4.90;;;;;;;-0.87;69.15;102086.19;5045021;28;20033;-67
2022/03/11 05:16:11;;;;;;;10.35;5.10;;;;;;;-0.84;68.90;102082.94;5044407;28;20215;-67
2022/03/11 05:18:36;;;;;;;9.82;4.85;;;;;;;-0.73;68.74;102089.63;5044615;28;20079;-68
2022/03/11 05:21:02;;;;;;;12.70;5.63;;;;;;;-0.95;69.37;102087.34;5027345;28;20025;-67
2022/03/11 05:23:27;;;;;;;11.90;4.80;;;;;;;-0.90;69.20;102088.53;5044656;28;20048;-66
2022/03/11 05:25:52;;;;;;;9.02;5.43;;;;;;;-0.94;69.28;102094.22;5044596;28;20025;-69
2022/03/11 05:28:18;;;;;;;10.07;5.78;;;;;;;-0.83;69.17;102077.06;5044811;28;20036;-70
2022/03/11 05:30:43;;;;;;;16.23;8.30;;;;;;;-0.90;69.42;102096.19;5048702;28;20032;-67
2022/03/11 05:33:09;;;;;;;12.88;4.80;;;;;;;-0.91;69.36;102090.19;5048459;28;20089;-67
2022/03/11 05:35:34;;;;;;;10.98;5.95;;;;;;;-0.91;69.20;102068.94;5048477;28;20025;-68
2022/03/11 05:37:59;;;;;;;16.77;6.75;;;;;;;-0.94;69.30;102076.38;5048315;28;20080;-67
2022/03/11 05:40:25;;;;;;;10.98;4.65;;;;;;;-0.89;69.65;102085.19;5048222;28;20033;-68
2022/03/11 05:42:51;;;;;;;13.40;6.10;;;;;;;-0.58;68.63;102088.88;5048224;28;20028;-68
2022/03/11 05:45:17;;;;;;;7.88;4.00;;;;;;;-0.86;69.21;102079.44;5048469;28;20040;-67
2022/03/11 05:47:42;;;;;;;12.27;7.25;;;;;;;-0.73;68.92;102098.94;5048158;28;20025;-68
2022/03/11 05:50:08;;;;;;;19.17;5.30;;;;;;;-0.77;69.18;102098.75;5030395;28;20033;-68
2022/03/11 05:52:42;;;;;;;8.45;4.30;;;;;;;-0.77;69.29;102098.75;5048383;28;20104;-67
2022/03/11 05:55:07;;;;;;;11.02;5.32;;;;;;;-0.60;68.75;102106.63;5030445;28;20033;-67
2022/03/11 05:57:34;;;;;;;18.17;7.10;;;;;;;-0.76;69.48;102100.53;5047889;28;20083;-67
2022/03/11 05:59:59;;;;;;;11.50;6.20;;;;;;;-0.70;69.32;102084.72;5048444;28;20017;-67
2022/03/11 06:02:24;;;;;;;8.98;5.28;;;;;;;-0.54;68.83;102101.91;5047750;28;20523;-68
2022/03/11 06:04:50;;;;;;;13.90;4.85;;;;;;;-0.46;69.19;102096.44;5029948;28;20028;-68
2022/03/11 06:07:15;;;;;;;8.40;5.82;;;;;;;-0.19;68.01;102092.19;5047887;28;20025;-69
2022/03/11 06:09:41;;;;;;;15.00;6.03;;;;;;;-0.15;67.33;102095.84;5047394;28;20041;-68
2022/03/11 06:12:07;;;;;;;11.05;5.45;;;;;;;-0.48;68.55;102091.25;5047358;28;20033;-67
2022/03/11 06:14:32;;;;;;;11.48;5.35;;;;;;;-0.34;68.06;102089.56;5047593;28;20163;-67
2022/03/11 06:16:58;;;;;;;13.13;6.57;;;;;;;-0.29;67.70;102094.97;5047412;28;20025;-68
2022/03/11 06:19:23;;;;;;;10.35;5.18;;;;;;;-0.23;67.51;102086.81;5047587;28;20097;-68
2022/03/11 06:21:49;;;;;;;12.20;5.13;;;;;;;-0.33;67.80;102083.66;5047306;28;20025;-68
2022/03/11 06:24:14;;;;;;;17.50;7.88;;;;;;;-0.35;68.18;102075.03;5047626;28;20025;-69
2022/03/11 06:26:41;;;;;;;12.68;6.97;;;;;;;-0.19;67.81;102088.78;5047088;28;20021;-71
2022/03/11 06:29:06;;;;;;;15.85;7.25;;;;;;;-0.19;68.91;102081.97;5047529;28;20052;-67
2022/03/11 06:31:32;;;;;;;19.80;5.90;;;;;;;0.36;66.90;102080.19;5047571;28;20077;-67
2022/03/11 06:33:58;;;;;;;11.55;6.43;;;;;;;0.71;65.41;102089.13;5029474;28;20167;-68
2022/03/11 06:36:24;;;;;;;17.40;7.55;;;;;;;0.73;65.11;102089.22;5047177;28;20061;-70
2022/03/11 06:38:49;;;;;;;25.50;6.60;;;;;;;0.88;64.56;102099.44;5029699;28;20018;-68
2022/03/11 06:41:14;;;;;;;13.80;6.75;;;;;;;1.16;63.85;102097.63;5046585;28;20079;-67
2022/03/11 06:43:40;;;;;;;12.43;6.40;;;;;;;1.27;63.10;102099.13;5047193;28;20036;-68
2022/03/11 06:46:05;;;;;;;16.65;6.15;;;;;;;1.44;62.01;102096.63;5047311;28;20029;-67
2022/03/11 06:48:31;;;;;;;8.52;4.78;;;;;;;1.66;60.66;102088.47;5047353;28;20119;-68
2022/03/11 06:50:57;;;;;;;14.07;7.88;;;;;;;1.35;61.89;102073.97;5047224;28;20044;-67
2022/03/11 06:53:26;;;;;;;12.45;5.63;;;;;;;1.52;61.34;102086.84;5046798;28;20029;-67
2022/03/11 06:55:53;;;;;;;14.55;6.13;;;;;;;1.63;61.73;102084.88;5046867;28;20032;-68
2022/03/11 06:58:18;;;;;;;11.50;4.68;;;;;;;2.01;59.56;102098.03;5046361;28;20021;-70
2022/03/11 07:00:44;;;;;;;12.80;4.78;;;;;;;2.10;59.19;102099.41;5046610;28;20021;-67
2022/03/11 07:03:09;;;;;;;14.80;5.22;;;;;;;1.89;59.78;102093.09;5046908;28;20025;-68
2022/03/11 07:05:34;;;;;;;16.83;6.03;;;;;;;2.09;59.20;102107.00;5028998;28;20036;-69
2022/03/11 07:08:00;;;;;;;11.30;6.18;;;;;;;2.07;59.17;102094.13;5046870;28;20025;-68
2022/03/11 07:10:25;;;;;;;17.95;4.90;;;;;;;2.17;58.94;102095.47;5046722;28;20106;-68
2022/03/11 07:12:50;;;;;;;8.38;5.30;;;;;;;2.41;57.74;102095.00;5046907;28;20501;-69
2022/03/11 07:15:16;;;;;;;9.68;5.00;;;;;;;2.33;57.97;102092.06;5047110;28;20022;-68
2022/03/11 07:17:41;;;;;;;16.67;5.32;;;;;;;2.47;57.81;102094.47;5046432;28;20085;-69
2022/03/11 07:20:07;;;;;;;12.48;7.22;;;;;;;2.29;58.34;102081.56;5046363;28;20025;-68
2022/03/11 07:22:32;;;;;;;17.13;8.27;;;;;;;2.55;58.14;102102.56;5046483;28;20038;-68
2022/03/11 07:25:02;;;;;;;14.30;7.40;;;;;;;2.79;57.09;102096.94;5046175;28;20034;-68
2022/03/11 07:27:27;;;;;;;15.85;7.25;;;;;;;3.00;56.10;102076.63;5045593;28;20421;-69
2022/03/11 07:29:56;;;;;;;9.20;5.30;;;;;;;3.01;56.38;102087.75;5045855;28;20052;-67
2022/03/11 07:32:22;;;;;;;14.20;7.35;;;;;;;3.09;57.30;102078.75;5046005;28;20021;-67
2022/03/11 07:34:47;;;;;;;13.75;6.60;;;;;;;3.55;55.32;102068.94;5046265;28;20032;-67
2022/03/11 07:37:13;;;;;;;13.18;6.63;;;;;;;3.81;53.40;102082.16;5045526;28;20053;-66
2022/03/11 07:39:42;;;;;;;18.65;6.30;;;;;;;3.73;53.85;102063.81;5045770;28;20500;-69
2022/03/11 07:42:08;;;;;;;10.32;5.70;;;;;;;3.57;54.00;102085.31;5045079;28;20124;-67
2022/03/11 07:44:33;;;;;;;12.20;6.13;;;;;;;3.46;53.74;102066.84;5045722;28;20437;-67
2022/03/11 07:46:59;;;;;;;10.90;5.10;;;;;;;3.32;53.66;102053.34;5045270;28;20081;-68
2022/03/11 07:49:24;;;;;;;18.60;9.07;;;;;;;2.95;55.88;102078.06;5045565;28;20025;-67
2022/03/11 07:51:50;;;;;;;20.90;6.30;;;;;;;3.30;54.46;102071.25;5044434;28;20111;-68
2022/03/11 07:54:15;;;;;;;11.45;5.53;;;;;;;3.51;53.04;102077.34;5027359;28;20025;-68
2022/03/11 07:56:41;;;;;;;17.80;7.82;;;;;;;3.07;54.47;102086.38;5045464;28;20055;-67
2022/03/11 07:59:06;;;;;;;13.75;6.35;;;;;;;3.11;54.39;102079.72;5045459;28;20021;-67
2022/03/11 08:01:33;;;;;;;15.85;7.60;;;;;;;3.08;54.56;102072.75;5045410;28;20110;-67
2022/03/11 08:03:59;;;;;;;11.52;6.43;;;;;;;3.20;53.83;102087.88;5045524;28;20029;-68
2022/03/11 08:06:24;;;;;;;13.80;7.07;;;;;;;3.07;54.30;102080.34;5045115;28;20460;-67
2022/03/11 08:08:49;;;;;;;14.45;8.07;;;;;;;3.04;54.74;102077.63;5027566;28;20076;-68
2022/03/11 08:11:15;;;;;;;14.02;6.30;;;;;;;3.36;53.24;102065.50;5045639;28;20018;-68
2022/03/11 08:13:41;;;;;;;13.90;6.78;;;;;;;3.20;53.61;102072.47;5045165;28;20026;-67
2022/03/11 08:16:07;;;;;;;15.27;8.05;;;;;;;3.16;54.05;102075.72;5045215;28;20363;-67
2022/03/11 08:18:33;;;;;;;16.52;8.27;;;;;;;3.22;55.36;102078.56;5044906;28;20029;-67
2022/03/11 08:20:59;;;;;;;17.48;8.30;;;;;;;3.68;53.41;102076.44;5026888;28;20021;-67
2022/03/11 08:23:24;;;;;;;19.27;6.32;;;;;;;3.96;51.93;102085.44;5045171;28;20025;-68
2022/03/11 08:25:50;;;;;;;13.40;6.20;;;;;;;4.11;50.52;102089.50;5045040;28;20025;-67
2022/03/11 08:28:16;;;;;;;14.95;7.30;;;;;;;3.89;51.14;102070.56;5044541;28;20029;-68
2022/03/11 08:30:43;;;;;;;16.83;8.48;;;;;;;3.95;51.21;102077.66;5044578;28;20029;-66
2022/03/11 08:33:10;;;;;;;11.63;6.28;;;;;;;4.18;49.76;102080.41;5044456;28;20226;-67
2022/03/11 08:35:36;;;;;;;12.10;7.40;;;;;;;4.34;49.84;102081.97;5044692;28;20465;-66
2022/03/11 08:38:04;;;;;;;17.70;8.10;;;;;;;4.51;49.22;102086.97;5044812;28;20049;-66
2022/03/11 08:40:29;;;;;;;11.52;6.03;;;;;;;4.78;48.44;102084.72;5044752;28;20022;-67
2022/03/11 08:42:55;;;;;;;21.80;7.40;;;;;;;4.94;48.26;102088.81;5044670;28;20040;-66
2022/03/11 08:45:22;;;;;;;17.70;8.27;;;;;;;4.94;47.98;102078.53;5044776;28;20022;-68
2022/03/11 08:47:49;;;;;;;10.05;6.22;;;;;;;5.10;46.57;102086.88;5044780;28;20034;-68
2022/03/11 08:50:15;;;;;;;15.98;6.70;;;;;;;4.94;46.25;102060.50;5027000;28;20022;-68
2022/03/11 08:52:41;;;;;;;18.80;8.40;;;;;;;4.71;47.62;102075.84;5044706;28;20021;-67
2022/03/11 08:55:07;;;;;;;13.95;6.43;;;;;;;5.26;46.50;102082.34;5044741;28;20029;-67
2022/03/11 08:57:35;;;;;;;12.85;6.47;;;;;;;5.45;45.44;102074.56;5044116;28;20025;-67
2022/03/11 09:00:02;;;;;;;17.10;8.98;;;;;;;5.41;46.14;102077.84;5044556;28;20024;-66
2022/03/11 09:02:27;;;;;;;12.43;5.97;;;;;;;5.65;44.29;102074.47;5044663;28;20049;-67
2022/03/11 09:04:53;;;;;;;11.93;6.90;;;;;;;5.51;43.90;102081.63;5044262;28;20381;-67
2022/03/11 09:07:18;;;;;;;14.43;7.88;;;;;;;5.58;44.17;102086.25;5044788;28;20032;-68
2022/03/11 09:09:44;;;;;;;21.70;8.65;;;;;;;5.83;43.26;102084.59;5044490;28;20029;-66
2022/03/11 09:12:09;;;;;;;11.55;5.85;;;;;;;5.91;42.66;102087.47;5044354;28;20030;-66
2022/03/11 09:14:34;;;;;;;14.32;7.13;;;;;;;6.04;41.63;102060.50;5044785;28;20033;-67
2022/03/11 09:17:01;;;;;;;7.60;4.75;;;;;;;6.09;40.71;102083.88;5044546;28;20112;-68
2022/03/11 09:19:27;;;;;;;31.70;7.57;;;;;;;5.75;41.49;102087.72;5044282;28;20021;-69
2022/03/11 09:21:52;;;;;;;23.30;8.23;;;;;;;5.45;42.31;102082.28;5044988;28;20497;-67
2022/03/11 09:24:17;;;;;;;48.42;9.98;;;;;;;5.48;42.56;102083.25;5044401;28;20025;-65
2022/03/11 09:26:47;;;;;;;14.38;8.32;;;;;;;5.57;42.51;102081.03;5043989;28;20029;-67
2022/03/11 09:29:13;;;;;;;15.02;8.05;;;;;;;5.60;41.67;102087.97;5044217;28;20034;-66
2022/03/11 09:31:39;;;;;;;9.48;5.60;;;;;;;5.77;40.98;102075.75;5044552;28;20044;-68
2022/03/11 09:34:04;;;;;;;10.68;5.15;;;;;;;5.61;41.39;102077.75;5044266;28;20030;-68
2022/03/11 09:36:29;;;;;;;18.23;8.32;;;;;;;5.42;41.96;102074.44;5044120;28;20403;-67
2022/03/11 09:38:55;;;;;;;16.45;6.82;;;;;;;5.63;41.16;102073.53;5044100;28;20018;-67
2022/03/11 09:41:20;;;;;;;10.68;6.25;;;;;;;5.59;42.31;102074.25;5043894;28;20367;-67
2022/03/11 09:43:46;;;;;;;84.88;16.50;;;;;;;5.80;41.84;102070.72;5044309;28;20048;-67
2022/03/11 09:46:14;;;;;;;8.80;4.93;;;;;;;6.06;39.65;102086.34;5044023;28;20029;-67
2022/03/11 09:48:41;;;;;;;8.25;5.03;;;;;;;5.92;39.22;102073.78;5044103;28;20052;-68
2022/03/11 09:51:09;;;;;;;13.48;5.00;;;;;;;5.79;39.32;102071.53;5044327;28;20022;-68
2022/03/11 09:53:35;;;;;;;10.32;4.32;;;;;;;5.70;39.34;102069.50;5026380;28;20400;-68
2022/03/11 09:56:00;;;;;;;9.63;4.53;;;;;;;5.55;39.49;102067.19;5043974;28;20022;-69
2022/03/11 09:58:25;;;;;;;14.77;5.40;;;;;;;5.26;40.68;102056.59;5043941;28;20472;-69
2022/03/11 10:00:51;;;;;;;16.13;7.25;;;;;;;5.30;40.48;102068.81;5044307;28;20048;-68
2022/03/11 10:03:16;;;;;;;12.35;5.15;;;;;;;5.68;39.23;102065.97;5044059;28;20037;-69
2022/03/11 10:05:52;;;;;;;11.07;5.03;;;;;;;5.77;39.11;102079.22;5044374;28;20033;-68
2022/03/11 10:08:35;;;;;;;11.63;5.63;;;;;;;5.71;38.38;102071.25;5043930;28;20022;-69
2022/03/11 10:11:16;;;;;;;19.55;5.72;;;;;;;5.89;38.00;102071.09;5044134;28;20030;-68
2022/03/11 10:13:42;;;;;;;9.63;5.07;;;;;;;6.12;37.40;102060.78;5043637;28;20545;-67
2022/03/11 10:16:37;;;;;;;10.55;6.07;;;;;;;6.45;36.66;102062.81;5045627;28;20026;-69
2022/03/11 10:19:09;;;;;;;8.38;3.63;;;;;;;6.71;35.19;102074.00;5030394;28;20064;-68
2022/03/11 10:21:45;;;;;;;6.32;3.90;;;;;;;6.64;34.84;102052.28;5047387;28;20029;-68
2022/03/11 10:24:17;;;;;;;20.17;7.60;;;;;;;6.24;35.97;102059.47;5047627;28;20022;-68
2022/03/11 10:26:42;;;;;;;10.80;5.97;;;;;;;6.40;35.43;102074.69;5047007;28;20071;-68
2022/03/11 10:29:14;;;;;;;8.68;3.47;;;;;;;6.52;34.71;102063.03;5047127;28;20029;-67
2022/03/11 10:31:45;;;;;;;5.18;3.65;;;;;;;6.62;33.92;102075.44;5047186;28;20083;-68
2022/03/11 10:34:17;;;;;;;10.10;6.47;;;;;;;6.66;33.82;102061.81;5046946;28;20025;-69
2022/03/11 10:37:02;;;;;;;;;;;;;;;6.76;33.52;102055.25;5047294;28;20050;-68
2022/03/11 10:39:30;;;;;;;13.98;6.40;;;;;;;6.90;32.57;102060.88;5047055;28;20381;-67
2022/03/11 10:41:58;;;;;;;7.40;3.17;;;;;;;7.06;32.35;102061.44;5046732;28;20454;-68
2022/03/11 10:44:26;;;;;;;7.43;3.58;;;;;;;7.44;31.65;102060.91;5046752;28;20564;-68
2022/03/11 10:46:56;;;;;;;11.43;5.72;;;;;;;7.62;31.38;102057.13;5046572;28;20029;-68
2022/03/11 10:49:33;;;;;;;5.40;3.30;;;;;;;8.14;30.16;102050.03;5046829;28;20028;-68
2022/03/11 10:52:00;;;;;;;12.32;4.65;;;;;;;8.43;29.65;102049.94;5046623;28;20466;-68
2022/03/11 10:54:27;;;;;;;10.90;6.03;;;;;;;8.76;28.28;102048.25;5046396;28;20033;-68
2022/03/11 10:56:53;;;;;;;7.07;3.78;;;;;;;8.89;28.19;102035.59;5046475;28;20338;-68
2022/03/11 10:59:22;;;;;;;15.35;6.18;;;;;;;9.07;27.87;102047.25;5046466;28;20053;-67
2022/03/11 11:01:50;;;;;;;9.38;5.95;;;;;;;9.41;28.46;102051.50;5028867;28;20059;-67
2022/03/11 11:04:17;;;;;;;5.72;3.60;;;;;;;9.79;26.08;102040.22;5046451;28;20041;-67
2022/03/11 11:06:42;;;;;;;8.55;3.95;;;;;;;9.71;26.64;102033.16;5046503;28;20036;-67
2022/03/11 11:09:10;;;;;;;12.45;4.55;;;;;;;10.17;25.08;102043.59;5046334;28;20026;-67
2022/03/11 11:11:36;;;;;;;6.68;3.60;;;;;;;9.99;25.64;102033.72;5046353;28;20109;-68
2022/03/11 11:14:05;;;;;;;5.53;2.88;;;;;;;10.08;24.64;102026.09;5046251;28;20030;-68
2022/03/11 11:16:38;;;;;;;8.23;3.92;;;;;;;10.17;23.44;102021.09;5045824;28;20032;-67
2022/03/11 11:19:07;;;;;;;9.63;3.13;;;;;;;10.29;23.44;102035.16;5046052;28;20108;-67
2022/03/11 11:21:34;;;;;;;6.95;3.38;;;;;;;10.54;22.84;102030.47;5028340;28;20322;-68